createdAt,value
2018-02-03T21:22:13.258Z,975.21
2018-02-03T21:23:59.048Z,975.17
2018-02-03T21:24:58.993Z,975.16
2018-02-03T21:26:51.881Z,975.25
2018-02-03T21:27:51.822Z,975.17
2018-02-03T21:29:44.625Z,975.23
2018-02-03T21:30:44.537Z,975.22
2018-02-03T21:32:37.311Z,975.25
2018-02-03T21:33:37.253Z,975.24
2018-02-03T21:35:30.058Z,975.25
2018-02-03T21:36:29.972Z,975.26
2018-02-03T21:38:22.751Z,975.27
2018-02-03T21:39:22.690Z,975.33
2018-02-03T21:41:15.501Z,975.33
2018-02-03T21:42:15.415Z,975.32
2018-02-03T21:44:08.190Z,975.36
2018-02-03T21:45:08.135Z,975.30
2018-02-03T21:47:00.978Z,975.36
2018-02-03T21:48:00.866Z,975.34
2018-02-03T21:49:53.643Z,975.37
2018-02-03T21:50:53.587Z,975.35
2018-02-03T21:52:46.399Z,975.36
2018-02-03T21:53:46.316Z,975.38
2018-02-03T21:55:39.095Z,975.38
2018-02-03T21:56:39.041Z,975.35
2018-02-03T21:58:31.855Z,975.42
2018-02-03T21:59:31.768Z,975.42
2018-02-03T22:01:24.547Z,975.39
2018-02-03T22:02:24.494Z,975.43
2018-02-03T22:04:17.300Z,975.38
2018-02-03T22:05:17.216Z,975.42
2018-02-03T22:07:09.994Z,975.44
2018-02-03T22:08:09.939Z,975.45
2018-02-03T22:10:02.748Z,975.44
2018-02-03T22:11:02.666Z,975.46
2018-02-03T22:12:55.444Z,975.50
2018-02-03T22:13:55.390Z,975.52
2018-02-03T22:15:48.202Z,975.52
2018-02-03T22:16:48.114Z,975.54
2018-02-03T22:18:40.892Z,975.53
2018-02-03T22:19:40.837Z,975.57
2018-02-03T22:21:33.650Z,975.59
2018-02-03T22:22:33.563Z,975.56
2018-02-03T22:24:26.339Z,975.59
2018-02-03T22:25:26.290Z,975.57
2018-02-03T22:27:19.093Z,975.56
2018-02-03T22:28:19.008Z,975.56
2018-02-03T22:30:11.785Z,975.62
2018-02-03T22:31:11.734Z,975.60
2018-02-03T22:33:04.538Z,975.62
2018-02-03T22:34:04.453Z,975.67
2018-02-03T22:35:57.234Z,975.66
2018-02-03T22:36:57.179Z,975.68
2018-02-03T22:38:49.988Z,975.73
2018-02-03T22:39:49.904Z,975.65
2018-02-03T22:41:42.682Z,975.62
2018-02-03T22:42:42.629Z,975.64
2018-02-03T22:44:35.438Z,975.71
2018-02-03T22:45:35.356Z,975.77
2018-02-03T22:47:28.129Z,975.75
2018-02-03T22:48:28.074Z,975.77
2018-02-03T22:50:20.941Z,975.80
2018-02-03T22:51:20.795Z,975.79
2018-02-03T22:53:13.571Z,975.83
2018-02-03T22:54:13.517Z,975.84
2018-02-03T22:56:06.322Z,975.82
2018-02-03T22:57:06.269Z,975.85
2018-02-03T22:58:59.018Z,975.82
2018-02-03T22:59:58.964Z,975.84
2018-02-03T23:01:51.772Z,975.89
2018-02-03T23:02:51.686Z,975.90
2018-02-03T23:04:44.463Z,975.92
2018-02-03T23:05:44.408Z,975.93
2018-02-03T23:07:37.217Z,975.94
2018-02-03T23:08:37.130Z,975.92
2018-02-03T23:10:29.905Z,975.92
2018-02-03T23:11:29.852Z,975.98
2018-02-03T23:13:22.660Z,976.01
2018-02-03T23:14:22.575Z,976.01
2018-02-03T23:16:15.351Z,976.01
2018-02-03T23:17:15.298Z,976.01
2018-02-03T23:19:08.107Z,976.06
2018-02-03T23:20:08.032Z,976.06
2018-02-03T23:22:00.801Z,976.10
2018-02-03T23:23:00.746Z,976.15
2018-02-03T23:24:53.554Z,976.12
2018-02-03T23:25:53.468Z,976.15
2018-02-03T23:27:46.245Z,976.17
2018-02-03T23:28:46.191Z,976.17
2018-02-03T23:30:38.996Z,976.20
2018-02-03T23:31:38.912Z,976.22
2018-02-03T23:33:31.696Z,976.21
2018-02-03T23:34:31.644Z,976.24
2018-02-03T23:36:24.448Z,976.24
2018-02-03T23:37:24.363Z,976.24
2018-02-03T23:39:17.141Z,976.23
2018-02-03T23:40:17.089Z,976.27
2018-02-03T23:42:09.900Z,976.31
2018-02-03T23:43:09.818Z,976.32
2018-02-03T23:45:02.593Z,976.33
2018-02-03T23:46:02.539Z,976.32
2018-02-03T23:47:55.345Z,976.34
2018-02-03T23:48:55.261Z,976.35
2018-02-03T23:50:48.038Z,976.36
2018-02-03T23:51:47.986Z,976.31
2018-02-03T23:53:40.794Z,976.35
2018-02-03T23:54:40.710Z,976.40
2018-02-03T23:56:33.486Z,976.44
2018-02-03T23:57:33.431Z,976.47
2018-02-03T23:59:26.239Z,976.49
